WAT5591 KAPF-KPBI
Flight info
| Callsign | WAT5591 |
|---|---|
| Flight time | 0h 25m |
| Altitude | 21000 |
| Route | IMOCK LUCYS VUUDU1 |
| Aircraft | C25B/M-SDE2E3FGHRWXY/LB1 |
Departure
| Time | 2026-04-25 20:06 |
|---|---|
| Airport | Naples Municipal Airport (KAPF) |
Arrival
| Time | 2026-04-25 20:31 |
|---|---|
| Airport | Palm Beach International Airport (KPBI) |
| Time | Latitude | Longitude | Altitude | Speed | Heading |
|---|---|---|---|---|---|
| 2026-04-25 19:53 | 26.15500 | -81.76965 | 16 ft | 0 kts | 268° |
| 2026-04-25 20:04 | 26.15501 | -81.76969 | 16 ft | 2 kts | 297° |
| 2026-04-25 20:04 | 26.15525 | -81.76977 | 16 ft | 7 kts | 348° |
| 2026-04-25 20:04 | 26.15569 | -81.76987 | 17 ft | 5 kts | 353° |
| 2026-04-25 20:05 | 26.15608 | -81.77013 | 19 ft | 9 kts | 311° |
| 2026-04-25 20:05 | 26.15669 | -81.77045 | 20 ft | 12 kts | 329° |
| 2026-04-25 20:05 | 26.15689 | -81.77100 | 21 ft | 8 kts | 230° |
| 2026-04-25 20:05 | 26.15531 | -81.77271 | 22 ft | 70 kts | 224° |
| 2026-04-25 20:06 | 26.14981 | -81.77857 | 234 ft | 134 kts | 224° |
| 2026-04-25 20:06 | 26.14282 | -81.78630 | 1154 ft | 153 kts | 230° |
| 2026-04-25 20:06 | 26.13919 | -81.79854 | 2059 ft | 186 kts | 265° |
| 2026-04-25 20:06 | 26.13872 | -81.81412 | 2879 ft | 216 kts | 264° |
| 2026-04-25 20:07 | 26.13753 | -81.83140 | 3897 ft | 226 kts | 264° |
| 2026-04-25 20:07 | 26.13626 | -81.84877 | 5081 ft | 226 kts | 264° |
| 2026-04-25 20:07 | 26.13745 | -81.86625 | 6028 ft | 232 kts | 293° |
| 2026-04-25 20:07 | 26.14863 | -81.87826 | 7071 ft | 231 kts | 337° |
| 2026-04-25 20:08 | 26.16440 | -81.87913 | 8054 ft | 235 kts | 14° |
| 2026-04-25 20:08 | 26.18023 | -81.87158 | 8538 ft | 261 kts | 24° |
| 2026-04-25 20:08 | 26.19787 | -81.86379 | 8938 ft | 282 kts | 16° |
| 2026-04-25 20:08 | 26.21698 | -81.85848 | 9824 ft | 283 kts | 11° |
| 2026-04-25 20:09 | 26.23627 | -81.85342 | 10578 ft | 286 kts | 13° |
| 2026-04-25 20:09 | 26.25561 | -81.84766 | 11360 ft | 288 kts | 13° |
| 2026-04-25 20:09 | 26.27484 | -81.84200 | 12132 ft | 290 kts | 12° |
| 2026-04-25 20:09 | 26.29442 | -81.83621 | 12903 ft | 292 kts | 11° |
| 2026-04-25 20:10 | 26.30773 | -81.83235 | 13424 ft | 292 kts | 11° |
| 2026-04-25 20:10 | 26.33396 | -81.82475 | 14309 ft | 297 kts | 11° |
| 2026-04-25 20:10 | 26.35403 | -81.81884 | 14942 ft | 300 kts | 10° |
| 2026-04-25 20:10 | 26.37432 | -81.81295 | 15548 ft | 303 kts | 11° |
| 2026-04-25 20:11 | 26.39484 | -81.80688 | 16150 ft | 307 kts | 10° |
| 2026-04-25 20:11 | 26.41567 | -81.80087 | 16742 ft | 311 kts | 10° |
| 2026-04-25 20:11 | 26.42961 | -81.79674 | 17130 ft | 313 kts | 11° |
| 2026-04-25 20:11 | 26.45804 | -81.78845 | 17909 ft | 318 kts | 10° |
| 2026-04-25 20:12 | 26.47229 | -81.78427 | 18278 ft | 321 kts | 11° |
| 2026-04-25 20:12 | 26.49385 | -81.77732 | 18748 ft | 326 kts | 16° |
| 2026-04-25 20:12 | 26.51418 | -81.76536 | 19237 ft | 334 kts | 27° |
| 2026-04-25 20:12 | 26.52702 | -81.75514 | 19552 ft | 339 kts | 36° |
| 2026-04-25 20:13 | 26.54811 | -81.72883 | 20245 ft | 348 kts | 51° |
| 2026-04-25 20:13 | 26.55957 | -81.70467 | 20751 ft | 356 kts | 64° |
| 2026-04-25 20:13 | 26.56924 | -81.67884 | 20934 ft | 368 kts | 63° |
| 2026-04-25 20:13 | 26.57950 | -81.65199 | 20951 ft | 383 kts | 64° |
| 2026-04-25 20:14 | 26.58976 | -81.62394 | 20940 ft | 396 kts | 64° |
| 2026-04-25 20:14 | 26.60049 | -81.59509 | 20938 ft | 406 kts | 64° |
| 2026-04-25 20:14 | 26.61144 | -81.56570 | 20935 ft | 414 kts | 64° |
| 2026-04-25 20:14 | 26.62265 | -81.53577 | 20407 ft | 415 kts | 64° |
| 2026-04-25 20:15 | 26.63351 | -81.50636 | 19856 ft | 405 kts | 64° |
| 2026-04-25 20:15 | 26.64421 | -81.47753 | 19325 ft | 397 kts | 64° |
| 2026-04-25 20:15 | 26.65466 | -81.44956 | 18811 ft | 395 kts | 64° |
| 2026-04-25 20:15 | 26.66519 | -81.42111 | 18325 ft | 396 kts | 64° |
| 2026-04-25 20:16 | 26.67579 | -81.39266 | 17774 ft | 396 kts | 64° |
| 2026-04-25 20:16 | 26.68627 | -81.36419 | 17239 ft | 395 kts | 64° |
| 2026-04-25 20:16 | 26.69680 | -81.33589 | 16723 ft | 394 kts | 64° |
| 2026-04-25 20:16 | 26.70724 | -81.30760 | 16204 ft | 392 kts | 64° |
| 2026-04-25 20:17 | 26.71768 | -81.27944 | 15690 ft | 391 kts | 64° |
| 2026-04-25 20:17 | 26.72801 | -81.25140 | 15167 ft | 388 kts | 65° |
| 2026-04-25 20:17 | 26.73659 | -81.22304 | 14728 ft | 382 kts | 74° |
| 2026-04-25 20:17 | 26.74251 | -81.19435 | 14377 ft | 374 kts | 73° |
| 2026-04-25 20:18 | 26.74961 | -81.16655 | 14025 ft | 369 kts | 71° |
| 2026-04-25 20:18 | 26.75630 | -81.13889 | 13669 ft | 365 kts | 73° |
| 2026-04-25 20:18 | 26.76236 | -81.11185 | 13302 ft | 362 kts | 73° |
| 2026-04-25 20:18 | 26.76858 | -81.08475 | 12951 ft | 358 kts | 73° |
| 2026-04-25 20:19 | 26.77484 | -81.05792 | 12612 ft | 354 kts | 73° |
| 2026-04-25 20:19 | 26.78114 | -81.03138 | 12275 ft | 352 kts | 73° |
| 2026-04-25 20:19 | 26.78663 | -81.00486 | 11934 ft | 349 kts | 79° |
| 2026-04-25 20:19 | 26.78754 | -80.97780 | 11602 ft | 345 kts | 88° |
| 2026-04-25 20:20 | 26.78879 | -80.95137 | 11281 ft | 335 kts | 84° |
| 2026-04-25 20:20 | 26.79051 | -80.92559 | 10964 ft | 328 kts | 86° |
| 2026-04-25 20:20 | 26.79140 | -80.90033 | 10662 ft | 322 kts | 87° |
| 2026-04-25 20:20 | 26.79239 | -80.87556 | 10355 ft | 317 kts | 86° |
| 2026-04-25 20:21 | 26.79347 | -80.85107 | 10056 ft | 313 kts | 86° |
| 2026-04-25 20:21 | 26.79454 | -80.82694 | 9754 ft | 308 kts | 86° |
| 2026-04-25 20:21 | 26.79558 | -80.80312 | 9443 ft | 304 kts | 86° |
| 2026-04-25 20:21 | 26.79648 | -80.77990 | 9152 ft | 300 kts | 88° |
| 2026-04-25 20:22 | 26.79472 | -80.75694 | 8857 ft | 295 kts | 104° |
| 2026-04-25 20:22 | 26.79049 | -80.74252 | 8677 ft | 293 kts | 111° |
| 2026-04-25 20:22 | 26.78128 | -80.71397 | 8324 ft | 290 kts | 110° |
| 2026-04-25 20:22 | 26.77415 | -80.69297 | 8073 ft | 288 kts | 112° |
| 2026-04-25 20:23 | 26.76707 | -80.67212 | 7838 ft | 286 kts | 111° |
| 2026-04-25 20:23 | 26.76004 | -80.65132 | 7588 ft | 284 kts | 111° |
| 2026-04-25 20:23 | 26.75296 | -80.63072 | 7346 ft | 283 kts | 112° |
| 2026-04-25 20:23 | 26.74600 | -80.61022 | 7126 ft | 281 kts | 111° |
| 2026-04-25 20:24 | 26.73906 | -80.58997 | 6960 ft | 277 kts | 112° |
| 2026-04-25 20:24 | 26.73215 | -80.56970 | 6630 ft | 280 kts | 111° |
| 2026-04-25 20:24 | 26.72522 | -80.54926 | 6268 ft | 283 kts | 111° |
| 2026-04-25 20:24 | 26.71819 | -80.52894 | 5895 ft | 285 kts | 111° |
| 2026-04-25 20:25 | 26.71112 | -80.50812 | 5510 ft | 288 kts | 111° |
| 2026-04-25 20:25 | 26.70396 | -80.48714 | 5129 ft | 287 kts | 111° |
| 2026-04-25 20:25 | 26.70000 | -80.46561 | 4813 ft | 281 kts | 92° |
| 2026-04-25 20:25 | 26.69940 | -80.44407 | 4581 ft | 274 kts | 95° |
| 2026-04-25 20:26 | 26.69749 | -80.42305 | 4342 ft | 269 kts | 95° |
| 2026-04-25 20:26 | 26.69642 | -80.40233 | 4102 ft | 264 kts | 93° |
| 2026-04-25 20:26 | 26.69550 | -80.38199 | 3871 ft | 260 kts | 94° |
| 2026-04-25 20:26 | 26.69420 | -80.36193 | 3643 ft | 256 kts | 96° |
| 2026-04-25 20:27 | 26.69303 | -80.34211 | 3478 ft | 253 kts | 94° |
| 2026-04-25 20:27 | 26.69237 | -80.32263 | 3342 ft | 250 kts | 91° |
| 2026-04-25 20:27 | 26.69186 | -80.30330 | 3202 ft | 247 kts | 95° |
| 2026-04-25 20:27 | 26.69072 | -80.28439 | 3061 ft | 244 kts | 95° |
| 2026-04-25 20:28 | 26.68990 | -80.26534 | 2768 ft | 247 kts | 93° |
| 2026-04-25 20:28 | 26.68930 | -80.24611 | 2470 ft | 249 kts | 94° |
| 2026-04-25 20:28 | 26.68844 | -80.22673 | 2146 ft | 250 kts | 95° |
| 2026-04-25 20:28 | 26.68747 | -80.20738 | 1827 ft | 248 kts | 94° |
| 2026-04-25 20:29 | 26.68670 | -80.18857 | 1505 ft | 234 kts | 94° |
| 2026-04-25 20:29 | 26.68598 | -80.17135 | 1211 ft | 202 kts | 94° |
| 2026-04-25 20:29 | 26.68533 | -80.15700 | 960 ft | 167 kts | 93° |
| 2026-04-25 20:29 | 26.68485 | -80.14520 | 800 ft | 132 kts | 94° |
| 2026-04-25 20:30 | 26.68438 | -80.13567 | 607 ft | 115 kts | 95° |
| 2026-04-25 20:30 | 26.68403 | -80.12684 | 450 ft | 111 kts | 96° |
| 2026-04-25 20:30 | 26.68367 | -80.11816 | 306 ft | 112 kts | 96° |
| 2026-04-25 20:30 | 26.68324 | -80.10947 | 145 ft | 112 kts | 94° |
| 2026-04-25 20:31 | 26.68290 | -80.10107 | 37 ft | 99 kts | 95° |
| 2026-04-25 20:31 | 26.68253 | -80.09478 | 24 ft | 56 kts | 92° |
| 2026-04-25 20:31 | 26.68248 | -80.09161 | 21 ft | 33 kts | 92° |
| 2026-04-25 20:31 | 26.68236 | -80.08910 | 20 ft | 31 kts | 93° |
| 2026-04-25 20:32 | 26.68225 | -80.08684 | 23 ft | 24 kts | 94° |
| 2026-04-25 20:32 | 26.68174 | -80.08583 | 27 ft | 15 kts | 138° |
| 2026-04-25 20:32 | 26.68092 | -80.08499 | 26 ft | 16 kts | 139° |
| 2026-04-25 20:32 | 26.68007 | -80.08413 | 27 ft | 15 kts | 137° |
| 2026-04-25 20:33 | 26.67943 | -80.08369 | 24 ft | 13 kts | 174° |
| 2026-04-25 20:33 | 26.67896 | -80.08350 | 23 ft | 0 kts | 74° |